createdAt,value
2022-11-12T00:01:52.019Z,15.43
2022-11-12T00:07:00.441Z,13.98
2022-11-12T00:12:09.114Z,14.80
2022-11-12T00:17:21.363Z,12.13
2022-11-12T00:22:29.736Z,13.63
2022-11-12T00:27:39.909Z,13.17
2022-11-12T00:32:50.991Z,14.05
2022-11-12T00:38:02.114Z,14.73
2022-11-12T00:43:10.654Z,14.63
2022-11-12T00:48:21.370Z,15.20
2022-11-12T00:53:31.752Z,14.05
2022-11-12T00:58:39.807Z,14.23
2022-11-12T01:03:52.618Z,14.85
2022-11-12T01:09:01.407Z,14.55
2022-11-12T01:14:12.100Z,15.55
2022-11-12T01:19:25.472Z,14.20
2022-11-12T01:24:34.042Z,14.38
2022-11-12T01:29:42.517Z,13.57
2022-11-12T01:34:53.963Z,14.38
2022-11-12T01:40:02.188Z,14.27
2022-11-12T01:45:17.308Z,15.98
2022-11-12T01:50:34.590Z,17.63
2022-11-12T01:55:47.750Z,15.35
2022-11-12T02:00:56.258Z,14.80
2022-11-12T02:06:14.689Z,14.10
2022-11-12T02:11:24.551Z,14.50
2022-11-12T02:16:36.218Z,14.35
2022-11-12T02:21:47.930Z,17.05
2022-11-12T02:26:58.339Z,14.52
2022-11-12T02:32:07.295Z,15.45
2022-11-12T02:37:18.188Z,14.18
2022-11-12T02:42:29.620Z,15.35
2022-11-12T02:47:38.145Z,19.10
2022-11-12T02:52:50.099Z,20.73
2022-11-12T02:58:00.533Z,18.38
2022-11-12T03:03:08.575Z,18.17
2022-11-12T03:08:19.704Z,20.75
2022-11-12T03:13:28.035Z,17.40
2022-11-12T03:18:37.868Z,17.87
2022-11-12T03:23:48.639Z,17.52
2022-11-12T03:28:57.988Z,19.17
2022-11-12T03:34:06.360Z,18.55
2022-11-12T03:39:17.185Z,19.10
2022-11-12T03:44:25.684Z,23.85
2022-11-12T03:49:34.052Z,21.15
2022-11-12T03:54:46.078Z,18.80
2022-11-12T03:59:54.344Z,20.13
2022-11-12T04:05:15.368Z,19.80
2022-11-12T04:10:26.389Z,19.20
2022-11-12T04:15:34.742Z,18.23
2022-11-12T04:21:01.452Z,19.47
2022-11-12T04:26:27.598Z,22.27
2022-11-12T04:31:38.451Z,24.50
2022-11-12T04:36:46.576Z,25.23
2022-11-12T04:42:09.900Z,25.07
2022-11-12T04:47:18.164Z,25.63
2022-11-12T04:52:26.833Z,23.13
2022-11-12T04:57:38.302Z,22.60
2022-11-12T05:02:49.123Z,22.02
2022-11-12T05:07:57.292Z,19.60
2022-11-12T05:13:08.162Z,20.17
2022-11-12T05:18:16.199Z,19.50
2022-11-12T05:23:27.990Z,18.75
2022-11-12T05:28:40.653Z,20.23
2022-11-12T05:33:49.107Z,20.20
2022-11-12T05:38:57.685Z,19.10
2022-11-12T05:44:09.769Z,19.23
2022-11-12T05:49:17.976Z,19.35
2022-11-12T05:54:26.277Z,16.67
2022-11-12T05:59:37.022Z,18.80
2022-11-12T06:04:45.144Z,16.67
2022-11-12T06:09:53.179Z,16.67
2022-11-12T06:15:03.779Z,16.25
2022-11-12T06:20:13.501Z,15.27
2022-11-12T06:25:21.613Z,16.57
2022-11-12T06:30:32.868Z,15.93
2022-11-12T06:35:43.078Z,12.52
2022-11-12T06:40:51.805Z,16.98
2022-11-12T06:46:09.538Z,15.98
2022-11-12T06:51:22.104Z,15.55
2022-11-12T06:56:30.727Z,16.08
2022-11-12T07:01:42.013Z,23.53
2022-11-12T07:06:50.556Z,22.15
2022-11-12T07:12:01.662Z,25.27
2022-11-12T07:17:12.441Z,25.27
2022-11-12T07:22:21.326Z,24.60
2022-11-12T07:27:34.611Z,26.33
2022-11-12T07:32:51.656Z,25.13
2022-11-12T07:38:04.545Z,25.10
2022-11-12T07:43:12.988Z,25.40
2022-11-12T07:48:24.620Z,22.48
2022-11-12T07:53:34.001Z,27.88
2022-11-12T07:58:42.429Z,24.42
2022-11-12T08:03:56.015Z,26.80
2022-11-12T08:09:08.795Z,26.00
2022-11-12T08:14:17.123Z,27.73
2022-11-12T08:19:27.870Z,30.60
2022-11-12T08:24:36.341Z,28.63
2022-11-12T08:29:44.836Z,31.73
2022-11-12T08:34:55.723Z,29.98
2022-11-12T08:40:03.702Z,31.27
2022-11-12T08:45:12.917Z,28.60
2022-11-12T08:50:24.219Z,30.58
2022-11-12T08:55:33.417Z,29.48
2022-11-12T09:00:44.332Z,27.70
2022-11-12T09:05:55.642Z,25.23
2022-11-12T09:11:03.748Z,25.40
2022-11-12T09:16:13.094Z,24.48
2022-11-12T09:21:27.403Z,23.25
2022-11-12T09:26:36.552Z,21.87
2022-11-12T09:31:44.915Z,19.38
2022-11-12T09:36:55.625Z,17.52
2022-11-12T09:42:11.602Z,14.98
2022-11-12T09:47:26.842Z,11.82
2022-11-12T09:52:42.349Z,11.32
2022-11-12T09:57:54.024Z,11.48
2022-11-12T10:03:10.388Z,10.40
2022-11-12T10:08:37.011Z,8.75
2022-11-12T10:13:54.036Z,10.47
2022-11-12T10:19:15.795Z,10.13
2022-11-12T10:24:31.771Z,8.85
2022-11-12T10:29:50.071Z,9.35
2022-11-12T10:35:02.898Z,9.13
2022-11-12T10:40:35.460Z,9.13
2022-11-12T10:45:43.940Z,9.82
2022-11-12T10:50:52.570Z,11.50
2022-11-12T10:56:05.215Z,10.63
2022-11-12T11:01:20.605Z,10.30
2022-11-12T11:06:35.281Z,10.73
2022-11-12T11:11:53.733Z,12.23
2022-11-12T11:17:08.633Z,10.47
2022-11-12T11:22:42.222Z,9.15
2022-11-12T11:28:06.873Z,7.40
2022-11-12T11:33:40.812Z,5.85
2022-11-12T11:38:59.479Z,7.28
2022-11-12T11:44:23.030Z,6.63
2022-11-12T11:50:01.701Z,8.18
2022-11-12T11:55:21.872Z,8.32
2022-11-12T12:00:39.982Z,7.20
2022-11-12T12:06:01.748Z,6.05
2022-11-12T12:11:19.155Z,4.88
2022-11-12T12:16:45.383Z,4.50
2022-11-12T12:21:55.915Z,4.20
2022-11-12T12:27:12.846Z,4.10
2022-11-12T12:32:32.856Z,4.40
2022-11-12T12:37:49.003Z,4.23
2022-11-12T12:43:02.858Z,4.15
2022-11-12T12:48:19.869Z,4.45
2022-11-12T12:53:38.384Z,4.90
2022-11-12T12:58:49.820Z,4.93
2022-11-12T13:04:03.408Z,4.60
2022-11-12T13:09:28.842Z,4.27
2022-11-12T13:15:10.661Z,4.78
2022-11-12T13:20:37.476Z,4.95
2022-11-12T13:25:48.420Z,4.50
2022-11-12T13:31:10.179Z,4.60
2022-11-12T13:36:32.594Z,5.93
2022-11-12T13:41:55.570Z,6.45
2022-11-12T13:47:04.826Z,7.07
2022-11-12T13:52:18.855Z,7.18
2022-11-12T13:57:31.277Z,6.37
2022-11-12T14:02:41.807Z,6.38
2022-11-12T14:08:18.854Z,6.60
2022-11-12T14:13:53.180Z,6.45
2022-11-12T14:19:31.252Z,6.07
2022-11-12T14:24:44.765Z,5.80
2022-11-12T14:30:11.084Z,6.35
2022-11-12T14:35:28.567Z,5.80
2022-11-12T14:40:48.257Z,6.30
2022-11-12T14:46:00.944Z,6.63
2022-11-12T14:51:14.418Z,6.70
2022-11-12T14:56:35.408Z,6.50
2022-11-12T15:02:31.364Z,6.68
2022-11-12T15:07:42.952Z,7.20
2022-11-12T15:12:54.414Z,7.40
2022-11-12T15:18:05.780Z,8.02
2022-11-12T15:23:20.441Z,7.95
2022-11-12T15:28:31.509Z,8.52
2022-11-12T15:33:41.091Z,9.05
2022-11-12T15:38:54.684Z,9.02
2022-11-12T15:44:05.668Z,8.98
2022-11-12T15:49:15.929Z,9.30
2022-11-12T15:54:27.228Z,9.35
2022-11-12T15:59:41.056Z,9.20
2022-11-12T16:04:49.710Z,9.27
2022-11-12T16:10:02.905Z,8.88
2022-11-12T16:15:18.541Z,9.73
2022-11-12T16:20:32.401Z,20.92
2022-11-12T16:25:45.107Z,16.13
2022-11-12T16:30:56.406Z,11.75
2022-11-12T16:36:05.013Z,13.05
2022-11-12T16:41:14.982Z,12.07
2022-11-12T16:46:31.790Z,11.23
2022-11-12T16:51:40.323Z,14.13
2022-11-12T16:56:48.826Z,18.67
2022-11-12T17:01:59.525Z,12.47
2022-11-12T17:07:08.868Z,13.20
2022-11-12T17:12:17.257Z,15.88
2022-11-12T17:17:28.654Z,15.93
2022-11-12T17:22:37.547Z,15.68
2022-11-12T17:27:46.180Z,16.05
2022-11-12T17:33:01.723Z,15.13
2022-11-12T17:38:09.957Z,14.25
2022-11-12T17:43:18.677Z,15.27
2022-11-12T17:48:29.949Z,15.30
2022-11-12T17:53:38.482Z,15.35
2022-11-12T17:58:48.539Z,14.85
2022-11-12T18:04:00.743Z,17.33
2022-11-12T18:09:11.054Z,16.85
2022-11-12T18:14:20.028Z,18.52
2022-11-12T18:19:30.769Z,17.58
2022-11-12T18:24:39.529Z,16.63
2022-11-12T18:29:48.341Z,19.27
2022-11-12T18:34:59.337Z,29.00
2022-11-12T18:40:08.196Z,26.95
2022-11-12T18:45:18.025Z,21.95
2022-11-12T18:50:29.333Z,17.07
2022-11-12T18:55:37.903Z,24.27
2022-11-12T19:00:47.253Z,29.13
2022-11-12T19:06:06.590Z,27.17
2022-11-12T19:11:16.426Z,21.10
2022-11-12T19:16:26.706Z,29.38
2022-11-12T19:21:37.472Z,28.95
2022-11-12T19:26:45.735Z,25.30
2022-11-12T19:31:54.178Z,23.65
2022-11-12T19:37:31.738Z,20.33
2022-11-12T19:42:33.700Z,22.17
2022-11-12T19:47:43.086Z,20.85
2022-11-12T19:52:57.007Z,20.83
2022-11-12T19:58:05.948Z,20.67
2022-11-12T20:03:14.830Z,20.58
2022-11-12T20:08:27.132Z,21.75
2022-11-12T20:13:38.974Z,22.35
2022-11-12T20:18:51.046Z,20.90
2022-11-12T20:24:04.164Z,21.38
2022-11-12T20:29:13.088Z,21.42
2022-11-12T20:34:25.335Z,22.00
2022-11-12T20:39:37.639Z,21.85
2022-11-12T20:44:46.372Z,23.45
2022-11-12T20:49:55.195Z,24.53
2022-11-12T20:55:08.060Z,23.65
2022-11-12T21:00:24.302Z,23.42
2022-11-12T21:05:36.171Z,23.15
2022-11-12T21:10:52.311Z,26.73
2022-11-12T21:16:06.416Z,26.13
2022-11-12T21:21:20.460Z,25.83
2022-11-12T21:26:32.813Z,26.47
2022-11-12T21:31:51.540Z,25.83
2022-11-12T21:37:01.620Z,26.65
2022-11-12T21:42:19.251Z,26.23
2022-11-12T21:47:29.204Z,23.83
2022-11-12T21:52:42.325Z,23.80
2022-11-12T21:57:54.400Z,24.67
2022-11-12T22:03:04.486Z,24.10
2022-11-12T22:08:14.742Z,23.10
2022-11-12T22:13:28.020Z,25.08
2022-11-12T22:18:37.986Z,24.80
2022-11-12T22:23:48.408Z,27.20
2022-11-12T22:29:02.734Z,23.37
2022-11-12T22:34:13.002Z,25.17
2022-11-12T22:39:22.352Z,24.60
2022-11-12T22:44:34.724Z,23.53
2022-11-12T22:49:44.889Z,25.50
2022-11-12T22:54:56.474Z,27.00
2022-11-12T23:00:13.983Z,26.20
2022-11-12T23:05:26.114Z,26.13
2022-11-12T23:10:40.426Z,28.15
2022-11-12T23:15:57.659Z,27.13
2022-11-12T23:21:08.349Z,28.95
2022-11-12T23:26:19.160Z,31.13
2022-11-12T23:31:33.762Z,29.35
2022-11-12T23:36:42.920Z,33.50
2022-11-12T23:42:00.515Z,33.05
2022-11-12T23:47:12.635Z,32.13
2022-11-12T23:52:22.063Z,31.65
2022-11-12T23:57:33.417Z,32.40
